Time;durP1;ratioP1;P1;durP2;ratioP2;P2;SDS_P1;SDS_P2;PMS_P1;PMS_P2;Temp;Humidity;BMP_temperature;BMP_pressure;BME280_temperature;BME280_humidity;BME280_pressure;Samples;Min_cycle;Max_cycle;Signal;HPM_P1;HPM_P2
2022/10/23 00:01:38;;;;;;;;;;;17.70;99.90;;;;;;5074084;28;19916;-82
2022/10/23 00:04:05;;;;;;;;;;;17.70;99.90;;;;;;5073406;28;19897;-83
2022/10/23 00:06:32;;;;;;;;;;;17.80;99.90;;;;;;5074493;28;19925;-83
2022/10/23 00:09:01;;;;;;;;;;;17.80;99.90;;;;;;5073179;28;19992;-83
2022/10/23 00:11:27;;;;;;;;;;;17.80;99.90;;;;;;5073237;28;19919;-83
2022/10/23 00:13:54;;;;;;;;;;;17.90;99.90;;;;;;5071399;28;19920;-83
2022/10/23 00:16:20;;;;;;;;;;;17.90;99.90;;;;;;5072733;28;19913;-83
2022/10/23 00:18:46;;;;;;;;;;;18.00;99.90;;;;;;5074799;28;19912;-83
2022/10/23 00:21:13;;;;;;;;;;;18.00;99.90;;;;;;5066939;28;19968;-83
2022/10/23 00:23:39;;;;;;;;;;;18.00;99.90;;;;;;5073160;28;19923;-82
2022/10/23 00:26:06;;;;;;;;;;;18.00;99.90;;;;;;5072523;28;19917;-83
2022/10/23 00:28:38;;;;;;;;;;;18.10;99.90;;;;;;5075167;28;19909;-83
2022/10/23 00:31:14;;;;;;;;;;;18.10;99.90;;;;;;5073425;28;19920;-83
2022/10/23 00:33:51;;;;;;;;;;;18.20;99.90;;;;;;5073415;28;19914;-83
2022/10/23 00:36:33;;;;;;;;;;;18.20;99.90;;;;;;5072800;28;19932;-83
2022/10/23 00:39:18;;;;;;;;;;;18.10;99.90;;;;;;5070298;28;19917;-82
2022/10/23 00:42:16;;;;;;;;;;;18.10;99.90;;;;;;5072165;28;19931;-82
2022/10/23 00:45:07;;;;;;;;;;;18.10;99.90;;;;;;5068815;28;19948;-82
2022/10/23 00:47:47;;;;;;;;;;;18.00;99.90;;;;;;5063731;28;19909;-82
2022/10/23 00:50:23;;;;;;;;;;;18.00;99.90;;;;;;5073418;28;19917;-83
2022/10/23 00:52:56;;;;;;;;;;;18.00;99.90;;;;;;5073359;28;20097;-84
2022/10/23 00:55:33;;;;;;;;;;;18.00;99.90;;;;;;5073397;28;19917;-82
2022/10/23 00:58:10;;;;;;;;;;;18.00;99.90;;;;;;5071023;28;19904;-82
2022/10/23 01:01:07;;;;;;;;;;;18.00;99.90;;;;;;5074054;28;19970;-82
2022/10/23 01:03:49;;;;;;;;;;;18.10;99.90;;;;;;5072073;28;19913;-83
2022/10/23 01:06:42;;;;;;;;;;;18.10;99.90;;;;;;5071062;28;19929;-83
2022/10/23 01:09:54;;;;;;;;;;;;;;;;;;;;;
2022/10/23 01:12:47;;;;;;;;;;;18.10;99.90;;;;;;5072460;28;19916;-83
2022/10/23 01:15:27;;;;;;;;;;;18.10;99.90;;;;;;5060487;28;19924;-83
2022/10/23 01:18:04;;;;;;;;;;;18.10;99.90;;;;;;5072974;28;19924;-84
2022/10/23 01:20:41;;;;;;;;;;;18.00;99.90;;;;;;5074553;28;19969;-82
2022/10/23 01:23:17;;;;;;;;;;;18.10;99.90;;;;;;5070488;28;19917;-83
2022/10/23 01:26:06;;;;;;;;;;;18.20;99.90;;;;;;5065739;28;19913;-83
2022/10/23 01:29:12;;;;;;;;;;;18.20;99.90;;;;;;5058903;28;19923;-83
2022/10/23 01:31:55;;;;;;;;;;;18.20;99.90;;;;;;5067049;28;19917;-82
2022/10/23 01:34:29;;;;;;;;;;;18.20;99.90;;;;;;5071049;28;19991;-83
2022/10/23 01:37:08;;;;;;;;;;;18.30;99.90;;;;;;5072252;28;19913;-82
2022/10/23 01:39:39;;;;;;;;;;;18.20;99.90;;;;;;5072402;28;19923;-82
2022/10/23 01:42:10;;;;;;;;;;;18.20;99.90;;;;;;5071581;28;19913;-83
2022/10/23 01:44:50;;;;;;;;;;;18.20;99.90;;;;;;5071478;28;19972;-82
2022/10/23 01:47:17;;;;;;;;;;;18.20;99.90;;;;;;5065353;28;19924;-83
2022/10/23 01:49:56;;;;;;;;;;;18.30;99.90;;;;;;5067697;28;19905;-83
2022/10/23 01:52:27;;;;;;;;;;;18.30;99.90;;;;;;5066865;28;19936;-82
2022/10/23 01:54:54;;;;;;;;;;;18.30;99.90;;;;;;5065747;28;19913;-82
2022/10/23 01:57:20;;;;;;;;;;;18.30;99.90;;;;;;5071536;28;19913;-82
2022/10/23 01:59:50;;;;;;;;;;;18.30;99.90;;;;;;5076107;28;19940;-82
2022/10/23 02:02:19;;;;;;;;;;;18.20;99.90;;;;;;5075077;28;19912;-82
2022/10/23 02:04:48;;;;;;;;;;;18.20;99.90;;;;;;5070794;28;19936;-82
2022/10/23 02:07:16;;;;;;;;;;;18.20;99.90;;;;;;5072652;28;19952;-83
2022/10/23 02:09:42;;;;;;;;;;;18.10;99.90;;;;;;5069322;28;19940;-82
2022/10/23 02:12:15;;;;;;;;;;;18.10;99.90;;;;;;5070897;28;19916;-81
2022/10/23 02:14:56;;;;;;;;;;;18.10;99.90;;;;;;5067593;28;19912;-82
2022/10/23 02:17:25;;;;;;;;;;;18.10;99.90;;;;;;5068147;28;19916;-83
2022/10/23 02:19:57;;;;;;;;;;;18.10;99.90;;;;;;5067832;28;19913;-83
2022/10/23 02:22:29;;;;;;;;;;;18.20;99.90;;;;;;5065089;28;19944;-82
2022/10/23 02:25:23;;;;;;;;;;;18.20;99.90;;;;;;5066606;28;19919;-82
2022/10/23 02:27:52;;;;;;;;;;;18.30;99.90;;;;;;5065239;28;19925;-82
2022/10/23 02:30:19;;;;;;;;;;;18.40;99.90;;;;;;5065053;28;19912;-82
2022/10/23 02:32:49;;;;;;;;;;;18.30;99.90;;;;;;5065063;28;19987;-82
2022/10/23 02:35:16;;;;;;;;;;;18.30;99.90;;;;;;5065974;28;19921;-82
2022/10/23 02:37:42;;;;;;;;;;;18.30;99.90;;;;;;5065452;28;19976;-84
2022/10/23 02:40:08;;;;;;;;;;;18.40;99.90;;;;;;5069127;28;19913;-83
2022/10/23 02:42:46;;;;;;;;;;;18.40;99.90;;;;;;5069227;28;20116;-82
2022/10/23 02:45:34;;;;;;;;;;;18.40;99.90;;;;;;5064858;28;19909;-83
2022/10/23 02:48:05;;;;;;;;;;;18.50;99.90;;;;;;5066410;28;19909;-82
2022/10/23 02:50:42;;;;;;;;;;;18.50;99.90;;;;;;5063016;28;19901;-82
2022/10/23 02:53:33;;;;;;;;;;;18.50;99.90;;;;;;5068962;28;19909;-82
2022/10/23 02:56:23;;;;;;;;;;;18.60;99.90;;;;;;5066239;28;19928;-84
2022/10/23 02:59:20;;;;;;;;;;;18.70;99.90;;;;;;5069297;28;19912;-83
2022/10/23 03:02:06;;;;;;;;;;;18.70;99.90;;;;;;5065999;28;19921;-83
2022/10/23 03:04:47;;;;;;;;;;;18.70;99.90;;;;;;5065412;28;19921;-84
2022/10/23 03:07:23;;;;;;;;;;;18.70;99.90;;;;;;5062528;28;20158;-84
2022/10/23 03:09:56;;;;;;;;;;;18.70;99.90;;;;;;5069607;28;19954;-83
2022/10/23 03:12:36;;;;;;;;;;;18.70;99.90;;;;;;5065859;28;19919;-82
2022/10/23 03:15:15;;;;;;;;;;;18.80;99.90;;;;;;5061902;28;19901;-82
2022/10/23 03:17:56;;;;;;;;;;;18.80;99.90;;;;;;5066990;28;19912;-82
2022/10/23 03:20:44;;;;;;;;;;;18.80;99.90;;;;;;5067354;28;19901;-83
2022/10/23 03:23:14;;;;;;;;;;;18.80;99.90;;;;;;5065911;28;19912;-83
2022/10/23 03:25:40;;;;;;;;;;;18.90;99.90;;;;;;5067689;28;20007;-82
2022/10/23 03:28:05;;;;;;;;;;;18.90;99.90;;;;;;5068657;28;20017;-83
2022/10/23 03:30:39;;;;;;;;;;;18.90;99.90;;;;;;5062600;28;19920;-86
2022/10/23 03:33:07;;;;;;;;;;;18.90;99.90;;;;;;5056033;28;19944;-84
2022/10/23 03:35:36;;;;;;;;;;;18.90;99.90;;;;;;5058784;28;19956;-85
2022/10/23 03:38:08;;;;;;;;;;;18.90;99.90;;;;;;5060400;28;19913;-84
2022/10/23 03:40:34;;;;;;;;;;;18.80;99.90;;;;;;5064582;28;19944;-84
2022/10/23 03:43:00;;;;;;;;;;;18.80;99.90;;;;;;5062811;28;19927;-85
2022/10/23 03:45:25;;;;;;;;;;;18.80;99.90;;;;;;5060824;28;20784;-84
2022/10/23 03:47:53;;;;;;;;;;;18.80;99.90;;;;;;5057667;28;19920;-83
2022/10/23 03:50:19;;;;;;;;;;;18.80;99.90;;;;;;5060376;28;19914;-85
2022/10/23 03:52:45;;;;;;;;;;;18.80;99.90;;;;;;5060654;28;19923;-85
2022/10/23 03:55:11;;;;;;;;;;;18.90;99.90;;;;;;5057766;28;19923;-85
2022/10/23 03:57:42;;;;;;;;;;;19.00;99.90;;;;;;5064519;28;19924;-84
2022/10/23 04:00:14;;;;;;;;;;;18.90;99.90;;;;;;5067075;28;19976;-86
2022/10/23 04:02:40;;;;;;;;;;;18.90;99.90;;;;;;5068636;28;19984;-85
2022/10/23 04:05:06;;;;;;;;;;;18.90;99.90;;;;;;5067129;28;19921;-85
2022/10/23 04:07:34;;;;;;;;;;;19.00;99.90;;;;;;5066603;28;20417;-85
2022/10/23 04:10:00;;;;;;;;;;;19.00;99.90;;;;;;5065262;28;19913;-84
2022/10/23 04:12:25;;;;;;;;;;;18.90;99.90;;;;;;5068491;28;19975;-84
2022/10/23 04:14:51;;;;;;;;;;;18.90;99.90;;;;;;5062401;28;19940;-84
2022/10/23 04:17:17;;;;;;;;;;;18.90;99.90;;;;;;5063658;28;19956;-83
2022/10/23 04:19:43;;;;;;;;;;;18.80;99.90;;;;;;5064286;28;19917;-86
2022/10/23 04:22:09;;;;;;;;;;;18.80;99.90;;;;;;5063095;28;19948;-85
2022/10/23 04:24:35;;;;;;;;;;;18.80;99.90;;;;;;5064231;28;19921;-84
2022/10/23 04:27:00;;;;;;;;;;;18.80;99.90;;;;;;5061302;28;19929;-84
2022/10/23 04:29:28;;;;;;;;;;;18.80;99.90;;;;;;5062126;28;19919;-85
2022/10/23 04:32:26;;;;;;;;;;;18.80;99.90;;;;;;5056773;28;19912;-83
2022/10/23 04:34:58;;;;;;;;;;;18.80;99.90;;;;;;5064241;28;20011;-85
2022/10/23 04:37:24;;;;;;;;;;;18.80;99.90;;;;;;5066696;28;19976;-86
2022/10/23 04:39:52;;;;;;;;;;;18.80;99.90;;;;;;5064696;28;19948;-86
2022/10/23 04:42:21;;;;;;;;;;;18.80;99.90;;;;;;5066669;28;20405;-85
2022/10/23 04:44:56;;;;;;;;;;;18.70;99.90;;;;;;5065594;28;19948;-85
2022/10/23 04:47:22;;;;;;;;;;;18.80;99.90;;;;;;5066451;28;19963;-83
2022/10/23 04:49:48;;;;;;;;;;;18.90;99.90;;;;;;5064719;28;19911;-86
2022/10/23 04:52:17;;;;;;;;;;;18.90;99.90;;;;;;5065600;28;19913;-85
2022/10/23 04:54:42;;;;;;;;;;;18.90;99.90;;;;;;5062906;28;19913;-85
2022/10/23 04:57:11;;;;;;;;;;;18.80;99.90;;;;;;5065397;28;19970;-84
2022/10/23 04:59:40;;;;;;;;;;;18.80;99.90;;;;;;5065358;28;19917;-85
2022/10/23 05:02:10;;;;;;;;;;;18.80;99.90;;;;;;5063344;28;19917;-87
2022/10/23 05:04:36;;;;;;;;;;;18.80;99.90;;;;;;5057371;28;19916;-87
2022/10/23 05:07:02;;;;;;;;;;;18.80;99.90;;;;;;5059891;28;20035;-86
2022/10/23 05:09:33;;;;;;;;;;;18.90;99.90;;;;;;5063583;28;19913;-84
2022/10/23 05:12:04;;;;;;;;;;;18.80;99.90;;;;;;5065241;28;19927;-86
2022/10/23 05:14:30;;;;;;;;;;;18.90;99.90;;;;;;5064949;28;19914;-85
2022/10/23 05:17:06;;;;;;;;;;;18.90;99.90;;;;;;5066725;28;19951;-86
2022/10/23 05:19:38;;;;;;;;;;;18.90;99.90;;;;;;5060122;28;19901;-85
2022/10/23 05:22:10;;;;;;;;;;;18.90;99.90;;;;;;5064487;28;19921;-87
2022/10/23 05:24:43;;;;;;;;;;;18.90;99.90;;;;;;5066277;28;19917;-85
2022/10/23 05:27:18;;;;;;;;;;;18.90;99.90;;;;;;5063945;28;19931;-86
2022/10/23 05:29:44;;;;;;;;;;;18.90;99.90;;;;;;5069001;28;19913;-85
2022/10/23 05:32:11;;;;;;;;;;;18.90;99.90;;;;;;5065092;28;19931;-84
2022/10/23 05:34:37;;;;;;;;;;;18.90;99.90;;;;;;5063060;28;19913;-84
2022/10/23 05:37:04;;;;;;;;;;;18.90;99.90;;;;;;5068779;28;19970;-83
2022/10/23 05:39:31;;;;;;;;;;;18.90;99.90;;;;;;5068502;28;19910;-83
2022/10/23 05:42:02;;;;;;;;;;;18.90;99.90;;;;;;5065947;28;19917;-84
2022/10/23 05:44:35;;;;;;;;;;;18.90;99.90;;;;;;5069017;28;19912;-83
2022/10/23 05:47:06;;;;;;;;;;;18.90;99.90;;;;;;5067514;28;19966;-85
2022/10/23 05:49:31;;;;;;;;;;;18.90;99.90;;;;;;5063162;28;19923;-84
2022/10/23 05:51:57;;;;;;;;;;;19.00;99.90;;;;;;5065060;28;19917;-84
2022/10/23 05:54:26;;;;;;;;;;;19.00;99.90;;;;;;5070778;28;19921;-85
2022/10/23 05:56:51;;;;;;;;;;;19.00;99.90;;;;;;5064619;28;19913;-85
2022/10/23 05:59:18;;;;;;;;;;;18.90;99.90;;;;;;5063983;28;19901;-84
2022/10/23 06:01:43;;;;;;;;;;;18.90;99.90;;;;;;5065845;28;19928;-83
2022/10/23 06:04:12;;;;;;;;;;;18.90;99.90;;;;;;5066489;28;19920;-84
2022/10/23 06:06:40;;;;;;;;;;;18.90;99.90;;;;;;5064306;28;19925;-85
2022/10/23 06:09:09;;;;;;;;;;;19.00;99.90;;;;;;5066831;28;19917;-86
2022/10/23 06:11:37;;;;;;;;;;;19.00;99.90;;;;;;5064464;28;19912;-83
2022/10/23 06:14:03;;;;;;;;;;;19.10;99.90;;;;;;5068319;28;19924;-83
2022/10/23 06:16:32;;;;;;;;;;;19.10;99.90;;;;;;5067338;28;20421;-83
2022/10/23 06:18:59;;;;;;;;;;;19.10;99.90;;;;;;5064359;28;19917;-86
2022/10/23 06:21:25;;;;;;;;;;;19.10;99.90;;;;;;5067876;28;19924;-84
2022/10/23 06:23:56;;;;;;;;;;;19.10;99.90;;;;;;5062355;28;19947;-84
2022/10/23 06:26:28;;;;;;;;;;;19.20;99.90;;;;;;5065375;28;19917;-86
2022/10/23 06:28:59;;;;;;;;;;;19.30;99.90;;;;;;5065048;28;19908;-83
2022/10/23 06:31:31;;;;;;;;;;;19.40;99.90;;;;;;5067335;28;19913;-85
2022/10/23 06:34:07;;;;;;;;;;;19.50;99.90;;;;;;5065959;28;19936;-84
2022/10/23 06:36:36;;;;;;;;;;;19.50;99.90;;;;;;5077644;28;19920;-84
2022/10/23 06:39:13;;;;;;;;;;;19.40;99.90;;;;;;5063241;28;19913;-85
2022/10/23 06:41:40;;;;;;;;;;;19.60;99.90;;;;;;5063600;28;19912;-86
2022/10/23 06:44:08;;;;;;;;;;;19.70;99.90;;;;;;5063220;28;19967;-84
2022/10/23 06:46:41;;;;;;;;;;;19.70;99.90;;;;;;5062657;28;19947;-83
2022/10/23 06:49:09;;;;;;;;;;;19.70;99.90;;;;;;5065221;28;19917;-84
2022/10/23 06:51:35;;;;;;;;;;;19.60;99.90;;;;;;5066631;28;19912;-84
2022/10/23 06:54:01;;;;;;;;;;;19.70;99.90;;;;;;5077404;28;19920;-83
2022/10/23 06:56:34;;;;;;;;;;;19.80;99.90;;;;;;5068709;28;19916;-84
2022/10/23 06:59:00;;;;;;;;;;;19.90;99.90;;;;;;5078443;28;19925;-84
2022/10/23 07:01:26;;;;;;;;;;;20.00;99.90;;;;;;5064200;28;19921;-85
2022/10/23 07:03:52;;;;;;;;;;;19.90;99.90;;;;;;5066857;28;19935;-85
2022/10/23 07:06:20;;;;;;;;;;;19.90;99.90;;;;;;5070355;28;19967;-84
2022/10/23 07:08:46;;;;;;;;;;;19.90;99.90;;;;;;5064236;28;20137;-83
2022/10/23 07:11:11;;;;;;;;;;;20.00;99.90;;;;;;5060269;28;19984;-84
2022/10/23 07:13:41;;;;;;;;;;;20.00;99.90;;;;;;5066298;28;19912;-84
2022/10/23 07:16:09;;;;;;;;;;;20.10;99.90;;;;;;5060289;28;19917;-86
2022/10/23 07:18:35;;;;;;;;;;;20.20;99.90;;;;;;5060191;28;20560;-84
2022/10/23 07:21:01;;;;;;;;;;;20.20;99.90;;;;;;5066993;28;19926;-85
2022/10/23 07:23:30;;;;;;;;;;;20.20;99.90;;;;;;5064197;28;19913;-85
2022/10/23 07:26:01;;;;;;;;;;;20.20;99.90;;;;;;5068013;28;19982;-84
2022/10/23 07:28:34;;;;;;;;;;;20.30;99.90;;;;;;5071796;28;19912;-86
2022/10/23 07:31:00;;;;;;;;;;;20.60;99.90;;;;;;5066897;28;19925;-84
2022/10/23 07:33:29;;;;;;;;;;;20.80;99.90;;;;;;5069482;28;19905;-85
2022/10/23 07:36:03;;;;;;;;;;;20.80;99.90;;;;;;5069454;28;19974;-86
2022/10/23 07:38:42;;;;;;;;;;;20.90;99.90;;;;;;5065548;28;19913;-84
2022/10/23 07:41:14;;;;;;;;;;;21.10;99.90;;;;;;5065243;28;20015;-84
2022/10/23 07:43:42;;;;;;;;;;;21.20;99.90;;;;;;5060617;28;19972;-83
2022/10/23 07:46:08;;;;;;;;;;;21.20;99.90;;;;;;5066246;28;19948;-85
2022/10/23 07:48:40;;;;;;;;;;;21.10;99.90;;;;;;5075271;28;19909;-84
2022/10/23 07:51:17;;;;;;;;;;;21.20;99.90;;;;;;5066177;28;19975;-84
2022/10/23 07:53:43;;;;;;;;;;;21.20;99.90;;;;;;5062955;28;19913;-78
2022/10/23 07:56:11;;;;;;;;;;;21.30;99.90;;;;;;5049155;28;20529;-79
2022/10/23 07:58:37;;;;;;;;;;;21.30;99.90;;;;;;5043679;28;19964;-79
2022/10/23 08:01:03;;;;;;;;;;;21.40;99.90;;;;;;5050498;28;19917;-79
2022/10/23 08:03:30;;;;;;;;;;;21.50;99.90;;;;;;5048265;28;19913;-79
2022/10/23 08:05:56;;;;;;;;;;;21.50;99.90;;;;;;5049229;28;20050;-79
2022/10/23 08:08:25;;;;;;;;;;;21.60;99.90;;;;;;5048883;28;20003;-79
2022/10/23 08:10:52;;;;;;;;;;;21.60;99.90;;;;;;5052833;28;19920;-79
2022/10/23 08:13:19;;;;;;;;;;;21.60;99.90;;;;;;5060066;28;19909;-79
2022/10/23 08:15:45;;;;;;;;;;;21.60;99.90;;;;;;5060166;28;19956;-79
2022/10/23 08:18:11;;;;;;;;;;;21.60;99.90;;;;;;5061208;28;20221;-79
2022/10/23 08:20:47;;;;;;;;;;;21.60;99.90;;;;;;5057950;28;19913;-79
2022/10/23 08:23:13;;;;;;;;;;;21.60;99.90;;;;;;5055589;28;19913;-79
2022/10/23 08:25:39;;;;;;;;;;;21.50;99.90;;;;;;5058318;28;19970;-80
2022/10/23 08:28:06;;;;;;;;;;;21.50;99.90;;;;;;5059806;28;19916;-79
2022/10/23 08:30:32;;;;;;;;;;;21.60;99.90;;;;;;5056737;28;19913;-79
2022/10/23 08:32:57;;;;;;;;;;;21.60;99.90;;;;;;5066537;28;20046;-79
2022/10/23 08:35:23;;;;;;;;;;;21.50;99.90;;;;;;5058108;28;19948;-79
2022/10/23 08:37:49;;;;;;;;;;;21.50;99.90;;;;;;5049799;28;19912;-79
2022/10/23 08:40:21;;;;;;;;;;;21.50;99.90;;;;;;5059882;28;19917;-80
2022/10/23 08:42:58;;;;;;;;;;;21.50;99.90;;;;;;5053667;28;19978;-80
2022/10/23 08:45:29;;;;;;;;;;;21.60;99.90;;;;;;5058283;28;20379;-79
2022/10/23 08:47:57;;;;;;;;;;;21.60;99.90;;;;;;5058230;28;19966;-80
2022/10/23 08:50:27;;;;;;;;;;;21.80;99.90;;;;;;5060987;28;19974;-80
2022/10/23 08:52:53;;;;;;;;;;;21.90;99.90;;;;;;5059679;28;19920;-80
2022/10/23 08:55:22;;;;;;;;;;;22.00;99.90;;;;;;5065324;28;19924;-80
2022/10/23 08:57:52;;;;;;;;;;;22.00;99.90;;;;;;5058551;28;19935;-81
2022/10/23 09:00:18;;;;;;;;;;;22.00;99.90;;;;;;5066219;28;19972;-80
2022/10/23 09:02:45;;;;;;;;;;;22.10;99.90;;;;;;5065998;28;19913;-81
2022/10/23 09:05:18;;;;;;;;;;;22.00;99.90;;;;;;5061872;28;19913;-79
2022/10/23 09:07:53;;;;;;;;;;;22.00;99.90;;;;;;5064443;28;19951;-80
2022/10/23 09:10:27;;;;;;;;;;;22.10;99.90;;;;;;5060009;28;19913;-79
2022/10/23 09:12:56;;;;;;;;;;;22.10;99.90;;;;;;5063719;28;19935;-80
2022/10/23 09:15:28;;;;;;;;;;;22.10;99.90;;;;;;5068364;28;19924;-76
2022/10/23 09:17:56;;;;;;;;;;;22.00;99.90;;;;;;5054864;28;19909;-77
2022/10/23 09:20:23;;;;;;;;;;;22.10;99.90;;;;;;5047286;28;20015;-76
2022/10/23 09:22:53;;;;;;;;;;;22.10;99.90;;;;;;5050321;28;19917;-76
2022/10/23 09:25:21;;;;;;;;;;;22.20;99.90;;;;;;5047827;28;19966;-79
2022/10/23 09:27:52;;;;;;;;;;;22.20;99.90;;;;;;5053997;28;19920;-79
2022/10/23 09:30:32;;;;;;;;;;;22.10;99.90;;;;;;5052582;28;19920;-79
2022/10/23 09:33:01;;;;;;;;;;;22.10;99.90;;;;;;5058360;28;19913;-79
2022/10/23 09:35:28;;;;;;;;;;;22.10;99.90;;;;;;5074868;28;20155;-79
2022/10/23 09:37:55;;;;;;;;;;;22.10;99.90;;;;;;5060074;28;19909;-79
2022/10/23 09:40:23;;;;;;;;;;;22.00;99.90;;;;;;5052298;28;20275;-79
2022/10/23 09:43:00;;;;;;;;;;;22.00;99.90;;;;;;5055763;28;20295;-79
2022/10/23 09:45:30;;;;;;;;;;;22.10;99.90;;;;;;5058867;28;19917;-79
2022/10/23 09:48:16;;;;;;;;;;;22.20;99.90;;;;;;5059644;28;20619;-80
2022/10/23 09:50:51;;;;;;;;;;;22.30;99.90;;;;;;5057394;28;20274;-79
2022/10/23 09:53:21;;;;;;;;;;;22.30;99.90;;;;;;5056394;28;19909;-79
2022/10/23 09:55:54;;;;;;;;;;;22.30;99.90;;;;;;5058135;28;20397;-80
2022/10/23 09:58:21;;;;;;;;;;;22.40;99.90;;;;;;5062061;28;19924;-80
2022/10/23 10:00:47;;;;;;;;;;;22.40;99.90;;;;;;5061069;28;19916;-80
2022/10/23 10:03:20;;;;;;;;;;;22.40;99.90;;;;;;5057348;28;19976;-80
2022/10/23 10:05:53;;;;;;;;;;;22.30;99.90;;;;;;5045605;28;20386;-80
2022/10/23 10:08:35;;;;;;;;;;;22.20;99.90;;;;;;5054143;28;20393;-80
2022/10/23 10:11:09;;;;;;;;;;;22.20;99.90;;;;;;5055927;28;19947;-80
2022/10/23 10:13:55;;;;;;;;;;;22.20;99.90;;;;;;5062878;28;19913;-79
2022/10/23 10:16:20;;;;;;;;;;;22.10;99.90;;;;;;5056959;28;19936;-80
2022/10/23 10:18:46;;;;;;;;;;;22.10;99.90;;;;;;5056475;28;19923;-79
2022/10/23 10:21:17;;;;;;;;;;;22.10;99.90;;;;;;5063864;28;19912;-79
2022/10/23 10:23:47;;;;;;;;;;;22.10;99.90;;;;;;5061830;28;19916;-80
2022/10/23 10:26:12;;;;;;;;;;;22.10;99.90;;;;;;5057806;28;19944;-79
2022/10/23 10:29:04;;;;;;;;;;;22.20;99.90;;;;;;5052272;28;20016;-79
2022/10/23 10:31:36;;;;;;;;;;;22.20;99.90;;;;;;5048118;28;19913;-80
2022/10/23 10:34:17;;;;;;;;;;;22.40;99.90;;;;;;5059405;28;20095;-79
2022/10/23 10:36:43;;;;;;;;;;;22.40;99.90;;;;;;5059908;28;20336;-80
2022/10/23 10:39:27;;;;;;;;;;;22.40;99.90;;;;;;5060570;28;19916;-80
2022/10/23 10:42:02;;;;;;;;;;;22.40;99.90;;;;;;5045622;28;19913;-79
2022/10/23 10:44:48;;;;;;;;;;;22.50;99.90;;;;;;5056714;28;20295;-80
2022/10/23 10:47:36;;;;;;;;;;;22.50;99.90;;;;;;5048013;28;19916;-79
2022/10/23 10:50:14;;;;;;;;;;;22.60;99.90;;;;;;5052584;28;20024;-78
2022/10/23 10:52:55;;;;;;;;;;;22.60;99.90;;;;;;5064633;28;19897;-79
2022/10/23 10:55:36;;;;;;;;;;;22.70;99.90;;;;;;5069520;28;19933;-80
2022/10/23 10:58:04;;;;;;;;;;;22.90;99.90;;;;;;5069872;28;19912;-80
2022/10/23 11:00:32;;;;;;;;;;;23.00;99.90;;;;;;5069329;28;19920;-80
2022/10/23 11:03:01;;;;;;;;;;;23.10;99.90;;;;;;5065443;28;19916;-80
2022/10/23 11:05:27;;;;;;;;;;;23.20;99.90;;;;;;5059690;28;19980;-79
2022/10/23 11:07:54;;;;;;;;;;;23.30;99.90;;;;;;5060861;28;19963;-80
2022/10/23 11:10:21;;;;;;;;;;;23.40;99.90;;;;;;5061425;28;19909;-79
2022/10/23 11:12:47;;;;;;;;;;;23.40;99.90;;;;;;5057706;28;19917;-79
2022/10/23 11:15:18;;;;;;;;;;;23.30;99.90;;;;;;5058385;28;19915;-79
2022/10/23 11:17:47;;;;;;;;;;;23.30;99.90;;;;;;5054882;28;20629;-80
2022/10/23 11:20:15;;;;;;;;;;;23.10;99.90;;;;;;5059386;28;20516;-79
2022/10/23 11:22:46;;;;;;;;;;;23.00;99.90;;;;;;5056976;28;19988;-79
2022/10/23 11:25:23;;;;;;;;;;;22.90;99.90;;;;;;5055509;28;20398;-79
2022/10/23 11:27:52;;;;;;;;;;;22.80;99.90;;;;;;5058706;28;19967;-79
2022/10/23 11:30:22;;;;;;;;;;;22.70;99.90;;;;;;5052902;28;19966;-79
2022/10/23 11:33:06;;;;;;;;;;;22.60;99.90;;;;;;5059584;28;19918;-79
2022/10/23 11:35:40;;;;;;;;;;;22.50;99.90;;;;;;5044338;28;19981;-80
2022/10/23 11:38:12;;;;;;;;;;;22.60;99.90;;;;;;5057938;28;19984;-79
2022/10/23 11:40:42;;;;;;;;;;;22.60;99.90;;;;;;5058441;28;20115;-79
2022/10/23 11:43:08;;;;;;;;;;;22.70;99.90;;;;;;5051911;28;20002;-79
2022/10/23 11:45:35;;;;;;;;;;;22.70;99.90;;;;;;5056904;28;19916;-79
2022/10/23 11:48:17;;;;;;;;;;;22.60;99.90;;;;;;5056444;28;19912;-79
2022/10/23 11:50:43;;;;;;;;;;;22.60;99.90;;;;;;5056928;28;19995;-79
2022/10/23 11:53:23;;;;;;;;;;;22.60;99.90;;;;;;5059464;28;19979;-79
2022/10/23 11:56:07;;;;;;;;;;;22.70;99.90;;;;;;5058365;28;20374;-79
2022/10/23 11:58:44;;;;;;;;;;;22.90;99.90;;;;;;5055786;28;19913;-79
2022/10/23 12:01:23;;;;;;;;;;;23.10;99.90;;;;;;5054895;28;19952;-79
2022/10/23 12:03:52;;;;;;;;;;;23.20;99.90;;;;;;5062355;28;20187;-79
2022/10/23 12:06:21;;;;;;;;;;;23.20;99.90;;;;;;5057245;28;19974;-80
2022/10/23 12:08:50;;;;;;;;;;;23.40;99.90;;;;;;5060003;28;19987;-80
2022/10/23 12:11:34;;;;;;;;;;;23.50;99.90;;;;;;5053174;28;20397;-80
2022/10/23 12:14:00;;;;;;;;;;;23.70;99.90;;;;;;5055344;28;19940;-79
2022/10/23 12:16:35;;;;;;;;;;;23.80;99.90;;;;;;5059616;28;19920;-79
2022/10/23 12:19:14;;;;;;;;;;;24.00;99.90;;;;;;5055630;28;20504;-79
2022/10/23 12:21:40;;;;;;;;;;;24.00;99.90;;;;;;5057877;28;20263;-79
2022/10/23 12:24:24;;;;;;;;;;;24.10;99.90;;;;;;5057292;28;19928;-80
2022/10/23 12:26:59;;;;;;;;;;;24.50;99.90;;;;;;5051170;28;20007;-79
2022/10/23 12:29:43;;;;;;;;;;;24.60;99.90;;;;;;5054711;28;20337;-79
2022/10/23 12:32:12;;;;;;;;;;;24.60;99.90;;;;;;5065526;28;19916;-79
2022/10/23 12:34:46;;;;;;;;;;;24.60;99.90;;;;;;5060294;28;19913;-79
2022/10/23 12:37:12;;;;;;;;;;;24.50;99.90;;;;;;5061945;28;19913;-79
2022/10/23 12:39:39;;;;;;;;;;;24.50;99.90;;;;;;5059951;28;19909;-79
2022/10/23 12:42:24;;;;;;;;;;;24.50;99.90;;;;;;5059782;28;19988;-79
2022/10/23 12:45:10;;;;;;;;;;;24.20;99.90;;;;;;5053647;28;19913;-79
2022/10/23 12:47:54;;;;;;;;;;;24.20;99.90;;;;;;5047451;28;19917;-79
2022/10/23 12:50:49;;;;;;;;;;;24.10;99.90;;;;;;5061543;28;19912;-80
2022/10/23 12:53:16;;;;;;;;;;;24.00;99.90;;;;;;5042637;28;19916;-80
2022/10/23 12:55:58;;;;;;;;;;;24.00;99.90;;;;;;5057816;28;19920;-80
2022/10/23 12:58:26;;;;;;;;;;;24.00;99.90;;;;;;5061904;28;19909;-80
2022/10/23 13:00:53;;;;;;;;;;;23.90;99.90;;;;;;5059757;28;19967;-80
2022/10/23 13:03:19;;;;;;;;;;;23.80;99.90;;;;;;5060903;28;19909;-81
2022/10/23 13:05:45;;;;;;;;;;;23.90;99.90;;;;;;5065505;28;20139;-80
2022/10/23 13:08:11;;;;;;;;;;;24.10;99.90;;;;;;5064501;28;20354;-81
2022/10/23 13:10:37;;;;;;;;;;;24.20;99.90;;;;;;5064315;28;19920;-81
2022/10/23 13:13:04;;;;;;;;;;;24.10;99.90;;;;;;5065270;28;19972;-82
2022/10/23 13:15:40;;;;;;;;;;;24.00;99.90;;;;;;5061781;28;19962;-80
2022/10/23 13:18:07;;;;;;;;;;;24.00;99.90;;;;;;5063007;28;19976;-80
2022/10/23 13:20:34;;;;;;;;;;;24.00;99.90;;;;;;5056395;28;19924;-80
2022/10/23 13:23:23;;;;;;;;;;;24.00;99.90;;;;;;5063729;28;19916;-79
2022/10/23 13:25:56;;;;;;;;;;;23.80;99.90;;;;;;5064079;28;19943;-79
2022/10/23 13:28:34;;;;;;;;;;;23.80;99.90;;;;;;5064532;28;19930;-80
2022/10/23 13:31:05;;;;;;;;;;;23.80;99.90;;;;;;5062610;28;19979;-80
2022/10/23 13:33:38;;;;;;;;;;;23.70;99.90;;;;;;5064445;28;19908;-80
2022/10/23 13:36:18;;;;;;;;;;;23.80;99.90;;;;;;5063595;28;19909;-80
2022/10/23 13:39:16;;;;;;;;;;;23.70;99.90;;;;;;5063841;28;20067;-80
2022/10/23 13:41:46;;;;;;;;;;;23.60;99.90;;;;;;5059448;28;19913;-80
2022/10/23 13:44:13;;;;;;;;;;;23.50;99.90;;;;;;5059207;28;19913;-80
2022/10/23 13:46:39;;;;;;;;;;;23.30;99.90;;;;;;5063142;28;19917;-80
2022/10/23 13:49:06;;;;;;;;;;;23.20;99.90;;;;;;5066278;28;19995;-79
2022/10/23 13:51:35;;;;;;;;;;;23.20;99.90;;;;;;5065668;28;19956;-80
2022/10/23 13:54:01;;;;;;;;;;;23.20;99.90;;;;;;5067190;28;20015;-80
2022/10/23 13:56:27;;;;;;;;;;;23.10;99.90;;;;;;5065972;28;19920;-80
2022/10/23 13:58:53;;;;;;;;;;;23.00;99.90;;;;;;5064665;28;19913;-80
2022/10/23 14:01:24;;;;;;;;;;;22.90;99.90;;;;;;5065017;28;19956;-80
2022/10/23 14:03:50;;;;;;;;;;;22.80;99.90;;;;;;5066093;28;19931;-79
2022/10/23 14:06:16;;;;;;;;;;;22.70;99.90;;;;;;5066216;28;20362;-79
2022/10/23 14:08:42;;;;;;;;;;;22.70;99.90;;;;;;5065649;28;19909;-79
2022/10/23 14:11:09;;;;;;;;;;;22.60;99.90;;;;;;5064161;28;20304;-79
2022/10/23 14:13:35;;;;;;;;;;;22.60;99.90;;;;;;5072011;28;19913;-79
2022/10/23 14:16:00;;;;;;;;;;;22.50;99.90;;;;;;5070060;28;19969;-80
2022/10/23 14:18:26;;;;;;;;;;;22.40;99.90;;;;;;5064728;28;19917;-79
2022/10/23 14:20:52;;;;;;;;;;;22.30;99.90;;;;;;5062348;28;19917;-79
2022/10/23 14:23:18;;;;;;;;;;;22.30;99.90;;;;;;5064953;28;19931;-80
2022/10/23 14:25:43;;;;;;;;;;;22.20;99.90;;;;;;5064674;28;19916;-79
2022/10/23 14:28:09;;;;;;;;;;;22.10;99.90;;;;;;5065425;28;20278;-80
2022/10/23 14:30:36;;;;;;;;;;;22.10;99.90;;;;;;5064193;28;19913;-79
2022/10/23 14:33:02;;;;;;;;;;;22.10;99.90;;;;;;5065186;28;19909;-80
2022/10/23 14:35:30;;;;;;;;;;;22.10;99.90;;;;;;5064410;28;19951;-80
2022/10/23 14:38:02;;;;;;;;;;;22.10;99.90;;;;;;5065110;28;19919;-79
2022/10/23 14:40:43;;;;;;;;;;;22.10;99.90;;;;;;5062088;28;19909;-79
2022/10/23 14:43:18;;;;;;;;;;;22.10;99.90;;;;;;5063169;28;19923;-79
2022/10/23 14:46:50;;;;;;;;;;;22.10;99.90;;;;;;5063779;28;19948;-79